Central Virginia Flyers


Central Virginia Flyers is a 10 member flying club based in Richmond, VA at Hanover County Airport (KOFP). We own N787AT, a 1977 Cessna 172 with 180hp conversion. If you are interested in membership, please contact Brenton at [email protected]


Aviation Digital Data Service (ADDS)

Output produced by METARs form (1349 UTC 23 September 2019)
found at http://aviationweather.gov/metar/data/
 
KOFP 231254Z AUTO 21007KT 10SM CLR 24/16 A3003 RMK AO2 SLP166 T02390161 $
KRIC 231254Z 22009KT 10SM FEW080 BKN300 24/17 A3002 RMK AO2 SLP170 T02390172
KRIC 231120Z 2312/2412 21007KT P6SM FEW070 
     FM231600 22010G17KT P6SM SCT060 
     FM240000 20007KT P6SM SCT100 
     FM240300 24006KT P6SM BKN070 
     FM240600 30006KT P6SM BKN060 
     FM240900 34009KT P6SM SCT150